createdAt,value
2017-07-24T00:02:18.149Z,19.40
2017-07-24T00:04:45.783Z,18.47
2017-07-24T00:07:13.399Z,18.20
2017-07-24T00:09:41.087Z,19.00
2017-07-24T00:12:08.725Z,18.77
2017-07-24T00:14:36.331Z,20.83
2017-07-24T00:17:04.059Z,21.07
2017-07-24T00:19:31.668Z,20.47
2017-07-24T00:21:59.274Z,20.80
2017-07-24T00:24:26.931Z,20.40
2017-07-24T00:26:54.533Z,21.27
2017-07-24T00:29:22.142Z,22.50
2017-07-24T00:31:49.831Z,20.97
2017-07-24T00:34:17.474Z,20.53
2017-07-24T00:36:45.086Z,20.60
2017-07-24T00:39:12.750Z,19.57
2017-07-24T00:41:40.386Z,18.77
2017-07-24T00:44:08.020Z,16.30
2017-07-24T00:46:35.709Z,18.33
2017-07-24T00:49:03.338Z,19.40
2017-07-24T00:51:30.962Z,19.50
2017-07-24T00:53:58.654Z,19.50
2017-07-24T00:56:26.282Z,19.40
2017-07-24T00:58:53.896Z,20.90
2017-07-24T01:01:21.579Z,20.43
2017-07-24T01:03:49.211Z,19.40
2017-07-24T01:06:16.828Z,18.20
2017-07-24T01:08:44.530Z,17.27
2017-07-24T01:11:12.142Z,18.20
2017-07-24T01:13:39.763Z,18.73
2017-07-24T01:16:07.440Z,17.93
2017-07-24T01:18:35.084Z,18.07
2017-07-24T01:21:02.705Z,18.13
2017-07-24T01:23:30.404Z,22.37
2017-07-24T01:25:58.018Z,19.00
2017-07-24T01:28:25.638Z,19.30
2017-07-24T01:30:53.338Z,19.47
2017-07-24T01:33:20.956Z,19.93
2017-07-24T01:35:48.645Z,22.20
2017-07-24T01:38:16.302Z,19.40
2017-07-24T01:40:43.900Z,20.60
2017-07-24T01:43:11.537Z,20.27
2017-07-24T01:45:39.234Z,21.67
2017-07-24T01:48:06.870Z,20.67
2017-07-24T01:50:34.494Z,22.13
2017-07-24T01:53:02.170Z,21.83
2017-07-24T01:55:29.784Z,20.63
2017-07-24T01:57:57.400Z,20.77
2017-07-24T02:00:25.110Z,24.30
2017-07-24T02:02:52.735Z,22.00
2017-07-24T02:05:20.357Z,22.47
2017-07-24T02:07:48.030Z,19.20
2017-07-24T02:10:15.721Z,20.70
2017-07-24T02:12:43.348Z,21.03
2017-07-24T02:15:11.042Z,21.20
2017-07-24T02:17:38.663Z,18.53
2017-07-24T02:20:06.363Z,22.80
2017-07-24T02:22:34.047Z,21.60
2017-07-24T02:25:01.684Z,20.63
2017-07-24T02:27:29.318Z,22.47
2017-07-24T02:29:57.017Z,23.50
2017-07-24T02:32:24.638Z,21.60
2017-07-24T02:34:52.252Z,22.47
2017-07-24T02:37:19.920Z,21.03
2017-07-24T02:39:47.549Z,20.27
2017-07-24T02:42:15.183Z,21.00
2017-07-24T02:44:42.869Z,18.70
2017-07-24T02:47:10.487Z,19.80
2017-07-24T02:49:38.092Z,21.30
2017-07-24T02:52:05.754Z,21.03
2017-07-24T02:54:33.380Z,18.67
2017-07-24T02:57:01.011Z,19.97
2017-07-24T02:59:28.673Z,19.77
2017-07-24T03:01:56.292Z,22.27
2017-07-24T03:04:23.917Z,21.50
2017-07-24T03:06:51.602Z,19.87
2017-07-24T03:09:19.192Z,19.97
2017-07-24T03:11:46.803Z,21.80
2017-07-24T03:14:14.477Z,20.10
2017-07-24T03:16:42.081Z,21.00
2017-07-24T03:19:09.705Z,20.80
2017-07-24T03:21:37.775Z,21.27
2017-07-24T03:24:05.503Z,19.37
2017-07-24T03:26:33.198Z,19.27
2017-07-24T03:29:01.138Z,21.20
2017-07-24T03:31:28.827Z,21.50
2017-07-24T03:33:56.545Z,20.03
2017-07-24T03:36:24.541Z,20.53
2017-07-24T03:38:52.227Z,25.53
2017-07-24T03:41:19.951Z,21.80
2017-07-24T03:43:47.959Z,21.40
2017-07-24T03:46:15.812Z,18.50
2017-07-24T03:48:43.586Z,18.57
2017-07-24T03:51:11.357Z,18.03
2017-07-24T03:53:39.021Z,17.20
2017-07-24T03:56:06.729Z,16.90
2017-07-24T03:58:34.755Z,17.00
2017-07-24T04:01:02.616Z,15.33
2017-07-24T04:03:30.403Z,14.10
2017-07-24T04:05:58.353Z,15.63
2017-07-24T04:08:26.213Z,15.00
2017-07-24T04:10:53.810Z,14.03
2017-07-24T04:13:21.546Z,13.63
2017-07-24T04:15:49.266Z,14.00
2017-07-24T04:18:17.073Z,12.50
2017-07-24T04:20:44.728Z,14.20
2017-07-24T04:23:12.607Z,14.37
2017-07-24T04:25:40.474Z,13.23
2017-07-24T04:28:08.093Z,14.97
2017-07-24T04:30:35.824Z,11.83
2017-07-24T04:33:03.510Z,17.50
2017-07-24T04:35:31.528Z,10.80
2017-07-24T04:37:59.400Z,12.40
2017-07-24T04:40:27.239Z,12.37
2017-07-24T04:42:54.923Z,12.20
2017-07-24T04:45:22.996Z,13.20
2017-07-24T04:47:50.677Z,12.63
2017-07-24T04:50:18.527Z,12.80
2017-07-24T04:52:46.523Z,12.93
2017-07-24T04:55:14.268Z,12.27
2017-07-24T04:57:41.934Z,11.80
2017-07-24T05:00:09.975Z,12.40
2017-07-24T05:02:37.843Z,12.73
2017-07-24T05:05:05.754Z,12.57
2017-07-24T05:07:33.797Z,11.50
2017-07-24T05:10:01.642Z,13.70
2017-07-24T05:12:29.385Z,15.40
2017-07-24T05:14:57.302Z,14.63
2017-07-24T05:17:25.119Z,13.60
2017-07-24T05:19:52.812Z,11.67
2017-07-24T05:22:20.595Z,11.20
2017-07-24T05:24:48.330Z,8.97
2017-07-24T05:27:16.311Z,9.50
2017-07-24T05:29:44.380Z,9.33
2017-07-24T05:32:12.262Z,9.50
2017-07-24T05:34:39.990Z,9.30
2017-07-24T05:37:07.996Z,9.20
2017-07-24T05:39:35.689Z,9.07
2017-07-24T05:42:03.321Z,10.23
2017-07-24T05:44:31.200Z,9.90
2017-07-24T05:46:59.258Z,10.00
2017-07-24T05:49:27.103Z,9.83
2017-07-24T05:51:55.161Z,11.90
2017-07-24T05:54:22.978Z,12.83
2017-07-24T05:56:50.695Z,14.20
2017-07-24T05:59:18.392Z,26.10
2017-07-24T06:01:46.055Z,25.63
2017-07-24T06:04:13.723Z,21.23
2017-07-24T06:06:41.743Z,20.57
2017-07-24T06:09:09.451Z,21.00
2017-07-24T06:11:37.175Z,21.80
2017-07-24T06:14:05.153Z,22.23
2017-07-24T06:16:32.860Z,26.00
2017-07-24T06:19:00.504Z,24.10
2017-07-24T06:21:28.577Z,27.08
2017-07-24T06:23:56.248Z,22.80
2017-07-24T06:26:23.915Z,23.92
2017-07-24T06:28:51.632Z,26.58
2017-07-24T06:31:19.273Z,27.35
2017-07-24T06:33:46.910Z,27.15
2017-07-24T06:36:14.586Z,25.52
2017-07-24T06:38:42.227Z,20.45
2017-07-24T06:41:09.857Z,18.85
2017-07-24T06:43:37.535Z,13.95
2017-07-24T06:46:05.152Z,11.07
2017-07-24T06:48:32.773Z,10.05
2017-07-24T06:51:00.437Z,9.75
2017-07-24T06:53:28.048Z,7.93
2017-07-24T06:55:55.672Z,9.35
2017-07-24T06:58:23.360Z,9.35
2017-07-24T07:00:50.975Z,9.65
2017-07-24T07:03:18.601Z,9.68
2017-07-24T07:05:46.287Z,9.57
2017-07-24T07:08:13.906Z,8.77
2017-07-24T07:10:41.516Z,8.10
2017-07-24T07:13:09.177Z,10.10
2017-07-24T07:15:36.841Z,10.18
2017-07-24T07:18:04.460Z,9.57
2017-07-24T07:20:32.122Z,9.43
2017-07-24T07:22:59.731Z,10.30
2017-07-24T07:25:27.356Z,8.73
2017-07-24T07:27:55.081Z,9.32
2017-07-24T07:30:22.706Z,9.48
2017-07-24T07:32:50.359Z,10.02
2017-07-24T07:35:18.134Z,9.70
2017-07-24T07:37:45.757Z,8.40
2017-07-24T07:40:13.368Z,8.75
2017-07-24T07:42:41.062Z,8.35
2017-07-24T07:45:08.676Z,7.78
2017-07-24T07:47:36.350Z,8.07
2017-07-24T07:50:04.107Z,7.85
2017-07-24T07:52:31.716Z,7.25
2017-07-24T07:54:59.331Z,7.22
2017-07-24T07:57:26.990Z,7.10
2017-07-24T07:59:54.590Z,6.87
2017-07-24T08:02:22.206Z,6.62
2017-07-24T08:04:49.861Z,7.20
2017-07-24T08:07:17.446Z,6.20
2017-07-24T08:09:45.080Z,6.85
2017-07-24T08:12:12.733Z,7.20
2017-07-24T08:14:40.352Z,7.37
2017-07-24T08:17:07.959Z,7.35
2017-07-24T08:19:35.640Z,7.82
2017-07-24T08:22:03.237Z,6.65
2017-07-24T08:24:30.846Z,6.70
2017-07-24T08:26:58.519Z,5.80
2017-07-24T08:29:26.364Z,5.35
2017-07-24T08:31:53.969Z,6.05
2017-07-24T08:34:21.627Z,6.93
2017-07-24T08:36:49.256Z,6.35
2017-07-24T08:39:16.866Z,5.15
2017-07-24T08:41:44.552Z,5.32
2017-07-24T08:44:12.163Z,6.95
2017-07-24T08:46:39.772Z,6.20
2017-07-24T08:49:07.448Z,5.18
2017-07-24T08:51:35.062Z,7.03
2017-07-24T08:54:02.679Z,5.68
2017-07-24T08:56:30.353Z,5.90
2017-07-24T08:58:57.980Z,5.50
2017-07-24T09:01:25.587Z,5.20
2017-07-24T09:03:53.247Z,6.53
2017-07-24T09:06:20.861Z,7.03
2017-07-24T09:08:48.485Z,6.85
2017-07-24T09:11:16.142Z,5.37
2017-07-24T09:13:43.758Z,6.03
2017-07-24T09:16:11.380Z,6.12
2017-07-24T09:18:39.038Z,5.95
2017-07-24T09:21:06.647Z,6.72
2017-07-24T09:23:34.257Z,6.95
2017-07-24T09:26:01.935Z,6.37
2017-07-24T09:28:29.551Z,6.85
2017-07-24T09:30:57.190Z,5.97
2017-07-24T09:33:24.862Z,6.37
2017-07-24T09:35:52.454Z,6.57
2017-07-24T09:38:20.050Z,5.80
2017-07-24T09:40:47.707Z,6.85
2017-07-24T09:43:15.335Z,5.05
2017-07-24T09:45:42.936Z,6.30
2017-07-24T09:48:10.591Z,5.95
2017-07-24T09:50:38.198Z,6.80
2017-07-24T09:53:05.806Z,5.90
2017-07-24T09:55:33.453Z,6.62
2017-07-24T09:58:01.059Z,6.12
2017-07-24T10:00:28.676Z,5.87
2017-07-24T10:02:56.353Z,7.28
2017-07-24T10:05:23.959Z,5.47
2017-07-24T10:07:51.580Z,7.18
2017-07-24T10:10:19.230Z,6.45
2017-07-24T10:12:46.826Z,7.07
2017-07-24T10:15:14.440Z,6.72
2017-07-24T10:17:42.111Z,6.57
2017-07-24T10:20:09.734Z,6.50
2017-07-24T10:22:37.335Z,6.28
2017-07-24T10:25:05.028Z,6.50
2017-07-24T10:27:32.648Z,6.60
2017-07-24T10:30:00.247Z,8.68
2017-07-24T10:32:27.932Z,8.02
2017-07-24T10:34:55.571Z,5.45
2017-07-24T10:37:23.166Z,6.95
2017-07-24T10:39:50.822Z,5.30
2017-07-24T10:42:18.416Z,5.62
2017-07-24T10:44:45.998Z,4.72
2017-07-24T10:47:13.659Z,5.62
2017-07-24T10:49:41.264Z,5.35
2017-07-24T10:52:08.863Z,4.82
2017-07-24T10:54:36.544Z,4.57
2017-07-24T10:57:04.153Z,4.87
2017-07-24T10:59:31.755Z,5.30
2017-07-24T11:01:59.413Z,5.15
2017-07-24T11:04:27.000Z,5.45
2017-07-24T11:06:54.711Z,5.07
2017-07-24T11:09:22.387Z,4.85
2017-07-24T11:11:49.979Z,5.32
2017-07-24T11:14:17.580Z,5.20
2017-07-24T11:16:45.239Z,5.22
2017-07-24T11:19:12.863Z,5.07
2017-07-24T11:21:40.462Z,6.32
2017-07-24T11:24:08.131Z,5.25
2017-07-24T11:26:35.745Z,5.47
2017-07-24T11:29:03.332Z,4.97
2017-07-24T11:31:30.983Z,5.30
2017-07-24T11:33:58.660Z,4.72
2017-07-24T11:36:26.254Z,5.57
2017-07-24T11:38:53.929Z,5.37
2017-07-24T11:41:21.529Z,5.22
2017-07-24T11:43:49.148Z,4.82
2017-07-24T11:46:16.834Z,5.30
2017-07-24T11:48:44.446Z,4.75
2017-07-24T11:51:12.068Z,5.07
2017-07-24T11:53:39.721Z,4.80
2017-07-24T11:56:07.337Z,5.87
2017-07-24T11:58:35.011Z,5.12
2017-07-24T12:01:02.659Z,6.30
2017-07-24T12:03:30.284Z,8.07
2017-07-24T12:05:57.901Z,5.40
2017-07-24T12:08:25.573Z,5.60
2017-07-24T12:10:53.193Z,6.28
2017-07-24T12:13:20.795Z,6.05
2017-07-24T12:15:48.458Z,5.85
2017-07-24T12:18:16.069Z,5.80
2017-07-24T12:20:43.686Z,6.47
2017-07-24T12:23:11.352Z,6.18
2017-07-24T12:25:39.019Z,6.22
2017-07-24T12:28:06.633Z,6.12
2017-07-24T12:30:34.302Z,6.82
2017-07-24T12:33:01.922Z,6.72
2017-07-24T12:35:29.575Z,7.07
2017-07-24T12:37:57.231Z,5.80
2017-07-24T12:40:24.825Z,6.15
2017-07-24T12:42:52.425Z,6.70
2017-07-24T12:45:20.101Z,6.50
2017-07-24T12:47:47.727Z,6.10
2017-07-24T12:50:15.326Z,7.05
2017-07-24T12:52:42.997Z,8.10
2017-07-24T12:55:10.622Z,8.45
2017-07-24T12:57:38.239Z,6.75
2017-07-24T13:00:05.986Z,7.68
2017-07-24T13:02:33.587Z,9.23
2017-07-24T13:05:01.197Z,7.05
2017-07-24T13:07:28.873Z,6.20
2017-07-24T13:09:56.480Z,6.68
2017-07-24T13:12:24.104Z,7.90
2017-07-24T13:14:51.775Z,6.78
2017-07-24T13:17:19.380Z,7.70
2017-07-24T13:19:46.991Z,6.90
2017-07-24T13:22:14.642Z,7.15
2017-07-24T13:24:42.242Z,9.82
2017-07-24T13:27:09.900Z,7.25
2017-07-24T13:29:37.501Z,7.78
2017-07-24T13:32:05.116Z,6.60
2017-07-24T13:34:32.794Z,6.40
2017-07-24T13:37:00.528Z,7.35
2017-07-24T13:39:28.143Z,7.37
2017-07-24T13:41:55.842Z,6.87
2017-07-24T13:44:23.467Z,7.45
2017-07-24T13:46:51.121Z,8.87
2017-07-24T13:49:18.795Z,7.00
2017-07-24T13:51:46.395Z,7.00
2017-07-24T13:54:13.987Z,7.45
2017-07-24T13:56:41.644Z,7.72
2017-07-24T13:59:09.250Z,7.15
2017-07-24T14:01:36.852Z,6.30
2017-07-24T14:04:04.543Z,8.52
2017-07-24T14:06:32.162Z,8.40
2017-07-24T14:08:59.778Z,7.62
2017-07-24T14:11:27.492Z,8.23
2017-07-24T14:13:55.091Z,7.45
2017-07-24T14:16:22.720Z,8.17
2017-07-24T14:18:50.389Z,9.90
2017-07-24T14:21:18.008Z,7.87
2017-07-24T14:23:45.639Z,10.17
2017-07-24T14:26:13.305Z,9.17
2017-07-24T14:28:40.897Z,7.33
2017-07-24T14:31:08.516Z,8.93
2017-07-24T14:33:37.088Z,8.80
2017-07-24T14:36:04.686Z,9.10
2017-07-24T14:38:32.332Z,9.43
2017-07-24T14:41:00.022Z,8.93
2017-07-24T14:43:27.623Z,8.60
2017-07-24T14:45:55.230Z,8.40
2017-07-24T14:48:22.886Z,8.40
2017-07-24T14:50:50.500Z,9.53
2017-07-24T14:53:18.102Z,9.17
2017-07-24T14:55:45.851Z,9.40
2017-07-24T14:58:13.464Z,8.67
2017-07-24T15:00:41.073Z,10.27
2017-07-24T15:03:08.722Z,9.73
2017-07-24T15:05:36.316Z,9.70
2017-07-24T15:08:03.929Z,10.60
2017-07-24T15:10:31.594Z,11.27
2017-07-24T15:12:59.194Z,11.33
2017-07-24T15:15:26.790Z,10.67
2017-07-24T15:17:54.461Z,10.03
2017-07-24T15:20:22.066Z,11.57
2017-07-24T15:22:49.678Z,10.40
2017-07-24T15:25:17.330Z,12.90
2017-07-24T15:27:44.930Z,12.20
2017-07-24T15:30:12.528Z,12.90
2017-07-24T15:32:40.233Z,12.90
2017-07-24T15:35:07.837Z,12.80
2017-07-24T15:37:35.451Z,13.70
2017-07-24T15:40:03.112Z,13.70
2017-07-24T15:42:30.717Z,13.70
2017-07-24T15:44:58.326Z,14.37
2017-07-24T15:47:26.002Z,13.47
2017-07-24T15:49:53.608Z,13.20
2017-07-24T15:52:21.245Z,14.70
2017-07-24T15:54:48.925Z,14.30
2017-07-24T15:57:16.612Z,14.53
2017-07-24T15:59:44.238Z,12.50
2017-07-24T16:02:11.897Z,15.57
2017-07-24T16:04:39.492Z,12.37
2017-07-24T16:07:07.107Z,13.27
2017-07-24T16:09:34.797Z,13.00
2017-07-24T16:12:02.973Z,13.20
2017-07-24T16:14:30.578Z,14.83
2017-07-24T16:16:58.249Z,13.73
2017-07-24T16:19:25.870Z,13.63
2017-07-24T16:21:53.477Z,13.43
2017-07-24T16:24:21.127Z,14.10
2017-07-24T16:26:48.737Z,14.03
2017-07-24T16:29:16.386Z,13.03
2017-07-24T16:31:44.048Z,14.40
2017-07-24T16:34:11.676Z,14.30
2017-07-24T16:36:39.305Z,16.43
2017-07-24T16:39:06.986Z,15.53
2017-07-24T16:41:34.620Z,13.80
2017-07-24T16:44:02.373Z,15.00
2017-07-24T16:46:30.042Z,12.90
2017-07-24T16:48:57.780Z,13.03
2017-07-24T16:51:25.399Z,15.90
2017-07-24T16:53:53.079Z,16.20
2017-07-24T16:56:20.702Z,14.43
2017-07-24T16:58:48.365Z,15.47
2017-07-24T17:01:16.042Z,16.70
2017-07-24T17:03:43.666Z,15.60
2017-07-24T17:06:11.277Z,14.10
2017-07-24T17:08:38.941Z,18.03
2017-07-24T17:11:06.555Z,14.70
2017-07-24T17:13:34.159Z,17.40
2017-07-24T17:16:01.843Z,14.00
2017-07-24T17:18:29.456Z,14.30
2017-07-24T17:20:57.049Z,15.53
2017-07-24T17:23:24.709Z,16.73
2017-07-24T17:25:52.318Z,17.80
2017-07-24T17:28:19.918Z,16.63
2017-07-24T17:30:47.587Z,19.87
2017-07-24T17:33:15.189Z,20.63
2017-07-24T17:35:42.809Z,19.80
2017-07-24T17:38:10.469Z,19.60
2017-07-24T17:40:38.102Z,19.10
2017-07-24T17:43:05.707Z,18.87
2017-07-24T17:45:33.363Z,20.40
2017-07-24T17:48:00.970Z,21.17
2017-07-24T17:50:28.636Z,19.17
2017-07-24T17:52:56.300Z,21.57
2017-07-24T17:55:23.889Z,21.07
2017-07-24T17:57:51.485Z,22.27
2017-07-24T18:00:19.174Z,21.30
2017-07-24T18:02:46.771Z,21.73
2017-07-24T18:05:14.375Z,20.27
2017-07-24T18:07:42.038Z,21.27
2017-07-24T18:10:09.641Z,19.93
2017-07-24T18:12:37.237Z,21.03
2017-07-24T18:15:04.909Z,20.90
2017-07-24T18:17:32.540Z,21.30
2017-07-24T18:20:00.166Z,23.10
2017-07-24T18:22:27.828Z,23.73
2017-07-24T18:24:55.442Z,21.33
2017-07-24T18:27:23.069Z,19.93
2017-07-24T18:29:50.747Z,21.23
2017-07-24T18:32:18.338Z,21.93
2017-07-24T18:34:45.953Z,22.27
2017-07-24T18:37:14.539Z,26.20
2017-07-24T18:39:42.173Z,25.57
2017-07-24T18:42:09.796Z,26.67
2017-07-24T18:44:37.466Z,25.57
2017-07-24T18:47:05.087Z,27.63
2017-07-24T18:49:32.736Z,27.50
2017-07-24T18:52:00.402Z,27.90
2017-07-24T18:54:28.026Z,24.80
2017-07-24T18:56:55.697Z,24.80
2017-07-24T18:59:23.360Z,22.50
2017-07-24T19:01:51.047Z,27.23
2017-07-24T19:04:18.663Z,25.10
2017-07-24T19:06:46.337Z,25.30
2017-07-24T19:09:13.947Z,26.00
2017-07-24T19:11:41.570Z,27.53
2017-07-24T19:14:09.312Z,26.57
2017-07-24T19:16:36.933Z,29.97
2017-07-24T19:19:04.534Z,30.37
2017-07-24T19:21:32.185Z,26.23
2017-07-24T19:23:59.837Z,26.23
2017-07-24T19:26:27.466Z,28.40
2017-07-24T19:28:55.159Z,28.90
2017-07-24T19:31:22.908Z,28.07
2017-07-24T19:33:50.537Z,25.33
2017-07-24T19:36:18.215Z,27.90
2017-07-24T19:38:45.811Z,28.23
2017-07-24T19:41:13.423Z,29.47
2017-07-24T19:43:41.082Z,28.77
2017-07-24T19:46:08.699Z,28.87
2017-07-24T19:48:36.337Z,29.33
2017-07-24T19:51:04.038Z,30.37
2017-07-24T19:53:31.642Z,31.50
2017-07-24T19:55:59.254Z,31.90
2017-07-24T19:58:29.323Z,31.70
2017-07-24T20:00:57.055Z,28.10
2017-07-24T20:03:24.657Z,28.97
2017-07-24T20:05:52.320Z,28.77
2017-07-24T20:08:19.917Z,27.10
2017-07-24T20:10:47.511Z,28.23
2017-07-24T20:13:15.153Z,29.97
2017-07-24T20:15:42.749Z,30.73
2017-07-24T20:18:10.412Z,30.73
2017-07-24T20:20:38.078Z,30.23
2017-07-24T20:23:05.712Z,28.80
2017-07-24T20:25:33.317Z,28.77
2017-07-24T20:28:00.976Z,33.63
2017-07-24T20:30:28.580Z,29.90
2017-07-24T20:32:56.313Z,30.60
2017-07-24T20:35:23.974Z,27.57
2017-07-24T20:37:51.578Z,22.03
2017-07-24T20:40:19.175Z,20.93
2017-07-24T20:42:46.952Z,19.20
2017-07-24T20:45:14.542Z,17.97
2017-07-24T20:47:42.146Z,17.10
2017-07-24T20:50:09.847Z,14.83
2017-07-24T20:52:37.491Z,15.10
2017-07-24T20:55:05.083Z,15.90
2017-07-24T20:57:32.727Z,15.10
2017-07-24T21:00:00.373Z,14.30
2017-07-24T21:02:27.992Z,14.23
2017-07-24T21:04:55.812Z,13.73
2017-07-24T21:07:23.418Z,12.83
2017-07-24T21:09:51.188Z,13.80
2017-07-24T21:12:18.981Z,14.67
2017-07-24T21:14:46.531Z,12.03
2017-07-24T21:17:14.078Z,15.23
2017-07-24T21:19:41.798Z,12.70
2017-07-24T21:22:09.348Z,14.53
2017-07-24T21:24:36.910Z,15.13
2017-07-24T21:27:04.519Z,13.90
2017-07-24T21:29:32.075Z,16.93
2017-07-24T21:31:59.827Z,14.00
2017-07-24T21:34:27.449Z,13.87
2017-07-24T21:36:55.395Z,15.60
2017-07-24T21:39:23.113Z,15.80
2017-07-24T21:41:50.921Z,15.17
2017-07-24T21:44:18.647Z,19.67
2017-07-24T21:46:46.662Z,18.57
2017-07-24T21:49:14.686Z,17.50
2017-07-24T21:51:42.503Z,18.37
2017-07-24T21:54:10.365Z,16.17
2017-07-24T21:56:38.188Z,18.27
2017-07-24T21:59:05.990Z,13.47
2017-07-24T22:01:33.650Z,13.73
2017-07-24T22:04:01.588Z,13.50
2017-07-24T22:06:29.507Z,14.90
2017-07-24T22:08:57.322Z,16.97
2017-07-24T22:11:25.291Z,14.33
2017-07-24T22:13:53.195Z,15.40
2017-07-24T22:16:20.925Z,16.93
2017-07-24T22:18:48.914Z,34.43
2017-07-24T22:21:16.657Z,18.40
2017-07-24T22:23:44.649Z,19.47
2017-07-24T22:26:12.717Z,18.77
2017-07-24T22:28:40.601Z,20.03
2017-07-24T22:31:08.451Z,25.37
2017-07-24T22:33:36.395Z,19.50
2017-07-24T22:36:04.388Z,22.03
2017-07-24T22:38:32.273Z,21.00
2017-07-24T22:41:00.274Z,23.00
2017-07-24T22:43:28.064Z,21.90
2017-07-24T22:45:55.877Z,20.17
2017-07-24T22:48:23.900Z,21.30
2017-07-24T22:50:51.812Z,18.53
2017-07-24T22:53:19.535Z,19.00
2017-07-24T22:55:47.525Z,19.50
2017-07-24T22:58:15.412Z,16.20
2017-07-24T23:00:43.069Z,15.90
2017-07-24T23:03:11.144Z,14.67
2017-07-24T23:05:39.220Z,14.63
2017-07-24T23:08:06.936Z,12.37
2017-07-24T23:10:34.804Z,14.43
2017-07-24T23:13:02.818Z,12.30
2017-07-24T23:15:30.536Z,12.37
2017-07-24T23:17:58.550Z,13.70
2017-07-24T23:20:26.211Z,12.70
2017-07-24T23:22:54.081Z,13.20
2017-07-24T23:25:22.152Z,12.87
2017-07-24T23:27:49.813Z,13.67
2017-07-24T23:30:17.679Z,14.03
2017-07-24T23:32:45.683Z,14.07
2017-07-24T23:35:13.525Z,13.30
2017-07-24T23:37:41.342Z,13.93
2017-07-24T23:40:09.333Z,12.40
2017-07-24T23:42:37.076Z,12.67
2017-07-24T23:45:05.068Z,12.53
2017-07-24T23:47:32.952Z,10.93
2017-07-24T23:50:00.678Z,12.30
2017-07-24T23:52:28.671Z,11.77
2017-07-24T23:54:56.638Z,12.60
2017-07-24T23:57:24.624Z,11.93
2017-07-24T23:59:52.470Z,11.80
